Time;durP1;ratioP1;P1;durP2;ratioP2;P2;SDS_P1;SDS_P2;PMS_P1;PMS_P2;Temp;Humidity;BMP_temperature;BMP_pressure;BME280_temperature;BME280_humidity;BME280_pressure;Samples;Min_cycle;Max_cycle;Signal;HPM_P1;HPM_P2
2021/01/31 00:01:04;;;;;;;27.27;11.75;;;-1.70;99.90;;;;;;4989522;28;20082;-58
2021/01/31 00:03:30;;;;;;;28.52;11.77;;;-1.80;99.90;;;;;;4989319;28;20033;-58
2021/01/31 00:06:00;;;;;;;26.45;10.52;;;-1.70;99.90;;;;;;4987380;28;20033;-57
2021/01/31 00:08:26;;;;;;;29.25;12.50;;;-1.70;99.90;;;;;;4988652;28;20018;-59
2021/01/31 00:10:53;;;;;;;27.48;10.80;;;-1.70;99.90;;;;;;4988256;28;20046;-58
2021/01/31 00:13:20;;;;;;;28.38;11.13;;;-1.60;99.90;;;;;;4982454;28;20640;-56
2021/01/31 00:15:48;;;;;;;30.10;12.00;;;-1.70;99.90;;;;;;4971207;28;20057;-51
2021/01/31 00:18:15;;;;;;;27.92;11.40;;;-1.70;99.90;;;;;;4987848;28;20045;-60
2021/01/31 00:20:45;;;;;;;26.35;10.02;;;-1.70;99.90;;;;;;4987285;28;20034;-59
2021/01/31 00:23:12;;;;;;;25.77;10.98;;;-1.60;99.90;;;;;;4987434;28;20025;-61
2021/01/31 00:25:37;;;;;;;22.63;9.55;;;-1.70;99.90;;;;;;4970935;28;20026;-61
2021/01/31 00:28:04;;;;;;;27.38;11.40;;;-1.70;99.90;;;;;;4990824;28;20085;-59
2021/01/31 00:30:34;;;;;;;28.48;11.57;;;-1.80;99.90;;;;;;4990904;28;20577;-58
2021/01/31 00:33:01;;;;;;;24.98;10.93;;;-1.90;99.90;;;;;;4991537;28;20022;-58
2021/01/31 00:35:28;;;;;;;25.38;11.25;;;-1.90;99.90;;;;;;4991361;28;20122;-58
2021/01/31 00:37:54;;;;;;;29.50;11.52;;;-2.00;99.90;;;;;;4991268;28;20033;-58
2021/01/31 00:40:21;;;;;;;28.85;11.77;;;-2.00;99.90;;;;;;4990787;28;20038;-60
2021/01/31 00:42:47;;;;;;;26.25;10.98;;;-2.00;99.90;;;;;;4983349;28;20485;-60
2021/01/31 00:45:18;;;;;;;29.65;11.73;;;-2.10;99.90;;;;;;4971863;28;20037;-59
2021/01/31 00:47:44;;;;;;;27.42;11.50;;;-2.00;99.90;;;;;;4954630;28;20023;-62
2021/01/31 00:50:15;;;;;;;28.90;12.20;;;-2.00;99.90;;;;;;4974176;28;20088;-59
2021/01/31 00:52:41;;;;;;;29.55;10.90;;;-2.10;99.90;;;;;;4972455;28;20042;-60
2021/01/31 00:55:07;;;;;;;28.13;11.18;;;-2.10;99.90;;;;;;4971676;28;20640;-58
2021/01/31 00:57:33;;;;;;;26.10;11.23;;;-2.10;99.90;;;;;;4971699;28;20467;-57
2021/01/31 00:59:58;;;;;;;29.17;11.90;;;-2.20;99.90;;;;;;4953058;28;20125;-62
2021/01/31 01:02:24;;;;;;;30.13;12.40;;;-2.20;99.90;;;;;;4970491;28;20050;-57
2021/01/31 01:04:50;;;;;;;29.20;12.20;;;-2.10;99.90;;;;;;4954489;28;20054;-59
2021/01/31 01:07:17;;;;;;;31.67;12.10;;;-2.10;99.90;;;;;;4979235;28;20398;-61
2021/01/31 01:09:47;;;;;;;27.75;10.48;;;-2.20;99.90;;;;;;4992012;28;20034;-60
2021/01/31 01:12:13;;;;;;;30.05;11.48;;;-2.20;99.90;;;;;;5046990;23;20127;-63
2021/01/31 01:14:39;;;;;;;30.92;12.23;;;-2.10;99.90;;;;;;5035167;28;20036;-62
2021/01/31 01:17:05;;;;;;;30.05;12.68;;;-2.20;99.90;;;;;;5053322;28;20025;-62
2021/01/31 01:19:31;;;;;;;28.10;12.18;;;-2.20;99.90;;;;;;5052179;28;20029;-62
2021/01/31 01:21:57;;;;;;;30.08;12.23;;;-2.30;99.90;;;;;;5052546;28;20025;-62
2021/01/31 01:24:23;;;;;;;29.35;12.85;;;-2.20;99.90;;;;;;5052827;28;20017;-59
2021/01/31 01:26:49;;;;;;;27.58;12.68;;;-2.30;99.90;;;;;;5053228;28;20474;-61
2021/01/31 01:29:15;;;;;;;28.67;11.73;;;-2.30;99.90;;;;;;5034409;28;20089;-63
2021/01/31 01:31:41;;;;;;;34.85;14.70;;;-2.30;99.90;;;;;;5034645;28;20408;-63
2021/01/31 01:34:07;;;;;;;27.98;10.20;;;-2.40;99.90;;;;;;5052338;28;20032;-64
2021/01/31 01:36:33;;;;;;;29.15;12.00;;;-2.40;99.90;;;;;;5034498;28;20029;-62
2021/01/31 01:38:59;;;;;;;29.05;12.02;;;-2.40;99.90;;;;;;5051028;28;20108;-63
2021/01/31 01:41:25;;;;;;;30.70;11.05;;;-2.40;99.90;;;;;;5052248;28;20025;-63
2021/01/31 01:43:55;;;;;;;28.75;11.68;;;-2.50;99.90;;;;;;5052419;28;20074;-62
2021/01/31 01:46:26;;;;;;;29.55;12.55;;;-2.60;99.90;;;;;;5034406;28;20079;-62
2021/01/31 01:49:00;;;;;;;28.65;12.55;;;-2.60;99.90;;;;;;5051572;28;20025;-62
2021/01/31 01:52:02;;;;;;;27.42;11.57;;;-2.60;99.90;;;;;;5034033;28;20033;-61
2021/01/31 01:54:35;;;;;;;29.30;11.80;;;-2.50;99.90;;;;;;5052278;28;20028;-62
2021/01/31 01:57:07;;;;;;;29.58;12.82;;;-2.50;99.90;;;;;;5034666;28;20043;-63
2021/01/31 01:59:35;;;;;;;26.67;11.82;;;-2.60;99.90;;;;;;5051375;28;20166;-63
2021/01/31 02:02:06;;;;;;;30.38;12.40;;;-2.60;99.90;;;;;;5051194;28;20039;-62
2021/01/31 02:04:33;;;;;;;30.20;12.02;;;-2.60;99.90;;;;;;5032004;28;20033;-62
2021/01/31 02:06:59;;;;;;;29.08;12.38;;;-2.60;99.90;;;;;;5040111;28;20032;-61
2021/01/31 02:09:25;;;;;;;29.20;12.80;;;-2.60;99.90;;;;;;5050107;28;20025;-62
2021/01/31 02:11:56;;;;;;;27.48;10.73;;;-2.80;99.90;;;;;;5051657;28;20029;-61
2021/01/31 02:14:23;;;;;;;27.95;11.07;;;-2.90;99.90;;;;;;5051923;28;20013;-59
2021/01/31 02:16:56;;;;;;;30.02;12.32;;;-3.00;99.90;;;;;;5051907;28;20395;-62
2021/01/31 02:19:52;;;;;;;28.40;10.55;;;-3.00;99.90;;;;;;5051271;28;20036;-59
2021/01/31 02:22:41;;;;;;;29.15;11.82;;;-2.90;99.90;;;;;;5051541;28;20025;-62
2021/01/31 02:25:22;;;;;;;31.15;10.77;;;-2.90;99.90;;;;;;5051608;28;20021;-61
2021/01/31 02:28:22;;;;;;;28.52;12.30;;;-2.80;99.90;;;;;;5051328;28;20435;-62
2021/01/31 02:31:00;;;;;;;28.50;11.85;;;-2.90;99.90;;;;;;5050029;28;20116;-59
2021/01/31 02:33:46;;;;;;;26.50;11.10;;;-2.90;99.90;;;;;;5042367;28;20029;-61
2021/01/31 02:36:23;;;;;;;29.95;12.05;;;-3.00;99.90;;;;;;5051751;28;20075;-60
2021/01/31 02:39:06;;;;;;;26.85;10.65;;;-3.00;99.90;;;;;;5051525;28;20024;-61
2021/01/31 02:41:43;;;;;;;25.80;11.02;;;-3.10;99.90;;;;;;5052203;28;20480;-62
2021/01/31 02:44:12;;;;;;;27.52;10.63;;;-3.00;99.90;;;;;;5034838;28;20112;-62
2021/01/31 02:46:46;;;;;;;28.60;11.15;;;-2.90;99.90;;;;;;5052756;28;20027;-61
2021/01/31 02:49:19;;;;;;;28.48;12.15;;;-3.00;99.90;;;;;;5052772;28;20028;-60
2021/01/31 02:51:57;;;;;;;30.08;11.57;;;-3.00;99.90;;;;;;5031744;28;20029;-60
2021/01/31 02:54:27;;;;;;;28.27;11.40;;;-3.00;99.90;;;;;;5032524;28;20032;-62
2021/01/31 02:57:02;;;;;;;32.42;10.85;;;-3.00;99.90;;;;;;5016480;28;20029;-62
2021/01/31 03:00:06;;;;;;;28.40;10.50;;;-3.00;99.90;;;;;;5033337;28;20025;-62
2021/01/31 03:02:47;;;;;;;27.77;12.23;;;-3.00;99.90;;;;;;5031371;28;20134;-62
2021/01/31 03:05:25;;;;;;;25.73;9.82;;;-2.90;99.90;;;;;;5043652;28;20100;-61
2021/01/31 03:08:06;;;;;;;26.30;10.60;;;-3.00;99.90;;;;;;5031298;28;20078;-61
2021/01/31 03:10:40;;;;;;;30.48;12.63;;;-3.10;99.90;;;;;;5042982;28;20033;-61
2021/01/31 03:13:38;;;;;;;25.73;9.27;;;-3.10;99.90;;;;;;5051199;28;20032;-60
2021/01/31 03:16:28;;;;;;;28.05;10.55;;;-3.10;99.90;;;;;;5040855;28;20036;-61
2021/01/31 03:19:12;;;;;;;30.95;11.48;;;-3.10;99.90;;;;;;5049199;28;20070;-62
2021/01/31 03:21:39;;;;;;;29.27;11.68;;;-3.00;99.90;;;;;;5050640;28;20044;-62
2021/01/31 03:24:16;;;;;;;26.30;10.52;;;-3.00;99.90;;;;;;5050845;28;20021;-61
2021/01/31 03:26:51;;;;;;;26.98;10.93;;;-3.00;99.90;;;;;;5050834;28;20062;-61
2021/01/31 03:29:17;;;;;;;27.83;12.60;;;-3.00;99.90;;;;;;5049887;28;20053;-61
2021/01/31 03:31:51;;;;;;;29.10;11.00;;;-3.10;99.90;;;;;;5050585;28;20052;-61
2021/01/31 03:34:22;;;;;;;28.80;12.43;;;-3.10;99.90;;;;;;5050730;28;20031;-60
2021/01/31 03:36:54;;;;;;;30.58;10.68;;;-3.20;99.90;;;;;;5050898;28;20028;-61
2021/01/31 03:39:20;;;;;;;28.23;12.15;;;-3.20;99.90;;;;;;5049837;28;20029;-60
2021/01/31 03:41:46;;;;;;;30.50;11.68;;;-3.20;99.90;;;;;;5050071;28;20036;-62
2021/01/31 03:44:12;;;;;;;28.27;12.15;;;-3.20;99.90;;;;;;5050412;28;20028;-61
2021/01/31 03:46:45;;;;;;;29.65;11.88;;;-3.20;99.90;;;;;;5050492;28;20025;-61
2021/01/31 03:49:27;;;;;;;27.63;10.90;;;-3.30;99.90;;;;;;5031877;28;20078;-61
2021/01/31 03:51:54;;;;;;;25.95;10.88;;;-3.20;99.90;;;;;;5049262;28;20040;-62
2021/01/31 03:54:20;;;;;;;27.65;11.40;;;-3.30;99.90;;;;;;5049749;28;20057;-58
2021/01/31 03:56:59;;;;;;;26.52;9.65;;;-3.20;99.90;;;;;;5041059;28;20037;-60
2021/01/31 03:59:40;;;;;;;27.50;11.35;;;-3.20;99.90;;;;;;5050673;28;20163;-62
2021/01/31 04:02:09;;;;;;;26.48;10.80;;;-3.20;99.90;;;;;;5044892;28;20417;-60
2021/01/31 04:04:46;;;;;;;27.50;11.27;;;-3.20;99.90;;;;;;5045988;28;20021;-59
2021/01/31 04:07:15;;;;;;;27.73;10.32;;;-3.20;99.90;;;;;;5054192;28;20483;-59
2021/01/31 04:09:43;;;;;;;27.20;10.38;;;-3.10;99.90;;;;;;5053453;28;20021;-62
2021/01/31 04:12:11;;;;;;;27.67;11.10;;;-3.10;99.90;;;;;;5035879;28;20033;-63
2021/01/31 04:14:38;;;;;;;27.15;10.82;;;-3.10;99.90;;;;;;5054223;28;20029;-62
2021/01/31 04:17:04;;;;;;;24.00;9.15;;;-3.20;99.90;;;;;;5054229;28;20065;-62
2021/01/31 04:19:30;;;;;;;29.42;10.80;;;-3.30;99.90;;;;;;5053334;28;20044;-61
2021/01/31 04:21:55;;;;;;;30.63;11.40;;;-3.30;99.90;;;;;;5053865;28;20035;-62
2021/01/31 04:24:21;;;;;;;26.73;9.98;;;-3.30;99.90;;;;;;5037413;28;20484;-61
2021/01/31 04:26:47;;;;;;;26.67;10.05;;;-3.30;99.90;;;;;;5052444;28;20029;-61
2021/01/31 04:29:12;;;;;;;25.67;10.57;;;-3.30;99.90;;;;;;5051633;28;20158;-61
2021/01/31 04:31:38;;;;;;;25.90;10.75;;;-3.20;99.90;;;;;;5053496;28;20483;-62
2021/01/31 04:34:04;;;;;;;31.52;10.98;;;-3.30;99.90;;;;;;5050087;28;20037;-61
2021/01/31 04:36:29;;;;;;;24.33;9.43;;;-3.40;99.90;;;;;;5053639;28;20480;-61
2021/01/31 04:38:56;;;;;;;27.60;10.63;;;-3.50;99.90;;;;;;5052618;28;20112;-59
2021/01/31 04:41:23;;;;;;;29.85;10.43;;;-3.50;99.90;;;;;;5053545;28;20076;-61
2021/01/31 04:43:50;;;;;;;27.40;10.25;;;-3.40;99.90;;;;;;5052993;28;20037;-61
2021/01/31 04:46:20;;;;;;;27.08;11.25;;;-3.40;99.90;;;;;;5053288;28;20464;-60
2021/01/31 04:49:01;;;;;;;26.42;10.48;;;-3.40;99.90;;;;;;5052786;28;20036;-61
2021/01/31 04:51:47;;;;;;;26.20;10.13;;;-3.40;99.90;;;;;;5053262;28;20479;-62
2021/01/31 04:54:25;;;;;;;25.85;9.18;;;-3.30;99.90;;;;;;5053543;28;20108;-61
2021/01/31 04:57:13;;;;;;;24.30;8.77;;;-3.40;99.90;;;;;;5053328;28;20032;-62
2021/01/31 04:59:49;;;;;;;25.83;9.27;;;-3.40;99.90;;;;;;5051143;28;20211;-60
2021/01/31 05:02:22;;;;;;;28.48;9.52;;;-3.40;99.90;;;;;;5053240;28;20029;-59
2021/01/31 05:04:54;;;;;;;30.30;9.48;;;-3.40;99.90;;;;;;5041021;28;20044;-62
2021/01/31 05:07:38;;;;;;;23.92;8.77;;;-3.50;99.90;;;;;;5053259;28;20021;-61
2021/01/31 05:10:08;;;;;;;30.35;10.27;;;-3.50;99.90;;;;;;5039431;28;20051;-61
2021/01/31 05:12:53;;;;;;;26.27;10.05;;;-3.40;99.90;;;;;;5051862;28;20048;-61
2021/01/31 05:15:19;;;;;;;23.00;9.10;;;-3.40;99.90;;;;;;5048144;28;20066;-60
2021/01/31 05:17:47;;;;;;;25.83;8.30;;;-3.60;99.90;;;;;;5038028;28;20029;-62
2021/01/31 05:20:15;;;;;;;25.45;9.02;;;-3.50;99.90;;;;;;5052430;28;20473;-62
2021/01/31 05:22:50;;;;;;;23.52;8.38;;;-3.50;99.90;;;;;;5050011;28;20077;-62
2021/01/31 05:25:19;;;;;;;25.33;9.10;;;-3.50;99.90;;;;;;5039204;28;20024;-61
2021/01/31 05:27:46;;;;;;;25.95;8.38;;;-3.50;99.90;;;;;;5052420;28;20442;-62
2021/01/31 05:30:13;;;;;;;25.30;9.55;;;-3.60;99.90;;;;;;5052269;28;20056;-60
2021/01/31 05:33:00;;;;;;;24.70;9.30;;;-3.50;99.90;;;;;;5034603;28;20492;-61
2021/01/31 05:35:27;;;;;;;27.17;10.88;;;-3.50;99.90;;;;;;5052549;28;20036;-61
2021/01/31 05:37:52;;;;;;;26.10;10.35;;;-3.50;99.90;;;;;;5052228;28;20025;-62
2021/01/31 05:40:34;;;;;;;22.80;8.20;;;-3.50;99.90;;;;;;5050429;28;20036;-61
2021/01/31 05:43:01;;;;;;;25.70;9.50;;;-3.50;99.90;;;;;;5052601;28;20025;-61
2021/01/31 05:45:37;;;;;;;22.60;8.77;;;-3.50;99.90;;;;;;5051467;28;20021;-61
2021/01/31 05:48:35;;;;;;;22.75;8.50;;;-3.60;99.90;;;;;;5052918;28;20021;-61
2021/01/31 05:51:16;;;;;;;26.38;9.52;;;-3.50;99.90;;;;;;5052053;28;20041;-60
2021/01/31 05:53:42;;;;;;;24.25;9.02;;;-3.50;99.90;;;;;;5049550;28;20033;-59
2021/01/31 05:56:25;;;;;;;26.17;9.68;;;-3.60;99.90;;;;;;5054295;28;20082;-59
2021/01/31 05:59:07;;;;;;;26.48;8.80;;;-3.60;99.90;;;;;;5036546;28;20106;-60
2021/01/31 06:01:33;;;;;;;24.92;9.70;;;-3.70;99.90;;;;;;5055504;28;20075;-61
2021/01/31 06:04:21;;;;;;;25.23;8.35;;;-3.60;99.90;;;;;;5052671;28;20033;-63
2021/01/31 06:06:47;;;;;;;23.03;8.53;;;-3.70;99.90;;;;;;5052236;28;20024;-60
2021/01/31 06:09:31;;;;;;;24.95;8.57;;;-3.60;99.90;;;;;;5051452;28;20623;-61
2021/01/31 06:12:08;;;;;;;24.92;9.68;;;-3.50;99.90;;;;;;5031661;28;20056;-61
2021/01/31 06:14:37;;;;;;;23.55;8.15;;;-3.60;99.90;;;;;;5032797;28;20022;-62
2021/01/31 06:17:08;;;;;;;24.25;8.85;;;-3.70;99.90;;;;;;5014403;28;20029;-59
2021/01/31 06:19:36;;;;;;;25.13;9.38;;;-3.80;99.90;;;;;;5014078;28;20061;-62
2021/01/31 06:22:07;;;;;;;23.60;8.60;;;-3.80;99.90;;;;;;5027777;28;20029;-62
2021/01/31 06:24:49;;;;;;;23.67;9.13;;;-3.90;99.90;;;;;;5041914;28;20025;-59
2021/01/31 06:27:29;;;;;;;25.92;8.70;;;-3.90;99.90;;;;;;5038897;28;20542;-60
2021/01/31 06:30:05;;;;;;;23.63;8.18;;;-3.90;99.90;;;;;;5050930;28;20139;-60
2021/01/31 06:32:33;;;;;;;25.83;9.48;;;-4.00;99.90;;;;;;5050575;28;20488;-61
2021/01/31 06:35:22;;;;;;;26.65;9.20;;;-4.10;99.90;;;;;;5046145;28;20031;-61
2021/01/31 06:38:05;;;;;;;28.73;10.93;;;-4.20;99.90;;;;;;5034042;28;20499;-61
2021/01/31 06:41:02;;;;;;;24.38;9.18;;;-4.20;99.90;;;;;;5050884;28;20032;-62
2021/01/31 06:43:35;;;;;;;25.25;9.18;;;-4.30;99.90;;;;;;5050585;28;20025;-60
2021/01/31 06:46:20;;;;;;;26.85;9.88;;;-4.30;99.90;;;;;;5032124;28;20033;-61
2021/01/31 06:48:52;;;;;;;23.70;9.30;;;-4.30;99.90;;;;;;5031108;28;20516;-60
2021/01/31 06:51:47;;;;;;;26.70;10.38;;;-4.20;99.90;;;;;;5013496;28;20478;-63
2021/01/31 06:54:19;;;;;;;27.75;11.07;;;-4.20;99.90;;;;;;4963186;28;20047;-62
2021/01/31 06:57:10;;;;;;;23.95;10.27;;;-4.20;99.90;;;;;;5042760;28;20380;-60
2021/01/31 07:00:30;;;;;;;28.05;10.32;;;-4.10;99.90;;;;;;5035581;28;20032;-63
2021/01/31 07:03:29;;;;;;;25.98;10.52;;;-4.10;99.90;;;;;;4976642;28;20167;-60
2021/01/31 07:06:06;;;;;;;28.40;10.93;;;-4.00;99.90;;;;;;5049624;28;20420;-62
2021/01/31 07:08:49;;;;;;;23.50;8.93;;;-3.90;99.90;;;;;;5050346;28;20034;-62
2021/01/31 07:11:48;;;;;;;26.45;11.13;;;-4.00;99.90;;;;;;5068839;23;20115;-56
2021/01/31 07:14:19;;;;;;;27.58;10.75;;;-3.90;99.90;;;;;;5014125;28;20033;-54
2021/01/31 07:16:57;;;;;;;27.80;10.40;;;-3.90;99.90;;;;;;5014123;28;20021;-55
2021/01/31 07:19:32;;;;;;;;;;;-3.80;99.90;;;;;;5013848;28;20017;-56
2021/01/31 07:22:19;;;;;;;25.20;11.30;;;-3.80;99.90;;;;;;5014031;28;19917;-57
2021/01/31 07:25:00;;;;;;;25.73;9.75;;;-3.80;99.90;;;;;;5013643;28;20025;-57
2021/01/31 07:27:35;;;;;;;27.33;11.02;;;-3.70;99.90;;;;;;4997510;28;20026;-54
2021/01/31 07:30:27;;;;;;;28.45;10.90;;;-3.70;99.90;;;;;;5029995;28;20584;-59
2021/01/31 07:33:08;;;;;;;22.60;8.45;;;-3.70;99.90;;;;;;5031737;28;20014;-58
2021/01/31 07:35:46;;;;;;;27.05;10.73;;;-3.70;99.90;;;;;;5023043;28;20026;-61
2021/01/31 07:38:21;;;;;;;25.15;10.07;;;-3.70;99.90;;;;;;5019402;28;20544;-57
2021/01/31 07:40:52;;;;;;;26.15;10.02;;;-3.60;99.90;;;;;;5035664;28;20531;-60
2021/01/31 07:43:19;;;;;;;24.02;8.48;;;-3.50;99.90;;;;;;5035995;28;20025;-58
2021/01/31 07:45:45;;;;;;;27.52;9.10;;;-3.50;99.90;;;;;;5035703;28;20476;-58
2021/01/31 07:48:35;;;;;;;27.33;9.85;;;-3.50;99.90;;;;;;5034326;28;20084;-56
2021/01/31 07:51:03;;;;;;;25.75;9.02;;;-3.50;99.90;;;;;;5034436;28;20029;-58
2021/01/31 07:53:39;;;;;;;28.73;11.63;;;-3.50;99.90;;;;;;5035538;28;20030;-57
2021/01/31 07:56:30;;;;;;;26.13;9.65;;;-3.50;99.90;;;;;;5033668;28;20025;-61
2021/01/31 07:59:10;;;;;;;24.48;8.80;;;-3.40;99.90;;;;;;5021937;28;20039;-60
2021/01/31 08:01:42;;;;;;;27.73;11.40;;;-3.40;99.90;;;;;;5026110;28;20077;-61
2021/01/31 08:04:16;;;;;;;24.98;9.90;;;-3.40;99.90;;;;;;5024950;28;20156;-58
2021/01/31 08:06:42;;;;;;;27.10;10.68;;;-3.30;99.90;;;;;;5018287;28;20029;-57
2021/01/31 08:09:08;;;;;;;25.67;9.60;;;-3.20;99.90;;;;;;5035062;28;20025;-59
2021/01/31 08:11:37;;;;;;;26.38;10.32;;;-3.10;99.90;;;;;;5026931;28;20172;-56
2021/01/31 08:14:04;;;;;;;25.20;10.77;;;-3.10;99.90;;;;;;5033992;28;20036;-57
2021/01/31 08:16:53;;;;;;;23.85;9.00;;;-3.10;99.90;;;;;;5035108;28;20060;-55
2021/01/31 08:19:19;;;;;;;27.15;10.32;;;-3.00;99.90;;;;;;5033002;28;20034;-56
2021/01/31 08:22:13;;;;;;;31.02;11.27;;;-3.00;99.90;;;;;;5027824;28;20107;-53
2021/01/31 08:24:57;;;;;;;26.15;10.32;;;-2.90;99.90;;;;;;5011525;28;20113;-56
2021/01/31 08:27:40;;;;;;;26.15;9.65;;;-2.90;99.90;;;;;;5013022;28;20433;-58
2021/01/31 08:30:27;;;;;;;27.08;9.15;;;-2.80;99.90;;;;;;5034224;28;20021;-59
2021/01/31 08:32:59;;;;;;;26.55;10.60;;;-2.80;99.90;;;;;;5034759;28;20014;-59
2021/01/31 08:35:26;;;;;;;26.90;10.63;;;-2.70;99.90;;;;;;5034888;28;20045;-57
2021/01/31 08:38:18;;;;;;;24.90;9.70;;;-2.60;99.90;;;;;;5017162;28;20467;-59
2021/01/31 08:40:59;;;;;;;23.90;8.77;;;-2.60;99.90;;;;;;5016680;28;20022;-60
2021/01/31 08:43:43;;;;;;;25.15;8.85;;;-2.50;99.90;;;;;;5034601;28;20079;-59
2021/01/31 08:46:28;;;;;;;24.50;9.75;;;-2.50;99.90;;;;;;5033966;28;20059;-60
2021/01/31 08:48:56;;;;;;;25.75;9.95;;;-2.50;99.90;;;;;;5012489;28;20030;-58
2021/01/31 08:51:25;;;;;;;27.15;10.60;;;-2.40;99.90;;;;;;5014551;28;20034;-60
2021/01/31 08:54:14;;;;;;;24.58;9.68;;;-2.30;99.90;;;;;;5027318;28;20052;-59
2021/01/31 08:56:44;;;;;;;24.35;9.45;;;-2.20;99.90;;;;;;5017090;28;20030;-58
2021/01/31 08:59:28;;;;;;;26.30;10.38;;;-2.20;99.90;;;;;;5023261;28;20057;-59
2021/01/31 09:02:09;;;;;;;26.00;9.73;;;-2.00;99.90;;;;;;5016093;28;20103;-57
2021/01/31 09:04:38;;;;;;;25.45;10.63;;;-2.00;99.90;;;;;;5021680;28;20129;-60
2021/01/31 09:07:04;;;;;;;29.05;11.35;;;-2.00;99.90;;;;;;5033053;28;20044;-58
2021/01/31 09:09:36;;;;;;;23.70;10.00;;;-1.90;99.90;;;;;;5032265;28;20481;-60
2021/01/31 09:12:08;;;;;;;28.25;10.32;;;-1.80;99.90;;;;;;5034212;28;20077;-56
2021/01/31 09:14:36;;;;;;;23.55;9.23;;;;;;;;;;5033021;28;20025;-56
2021/01/31 09:17:05;;;;;;;27.00;10.05;;;;;;;;;;5032932;28;20033;-59
2021/01/31 09:19:31;;;;;;;25.40;10.43;;;;;;;;;;5032061;28;20029;-56
2021/01/31 09:22:03;;;;;;;25.77;10.85;;;;;;;;;;5030237;28;20025;-54
2021/01/31 09:24:34;;;;;;;23.65;10.02;;;;;;;;;;4996450;28;20586;-53
2021/01/31 09:27:01;;;;;;;24.88;10.32;;;;;;;;;;5014031;28;20046;-60
2021/01/31 09:29:29;;;;;;;24.70;10.43;;;;;;;;;;4995850;28;20018;-56
2021/01/31 09:31:55;;;;;;;;;;;;;;;;;;4996436;28;20037;-58
2021/01/31 09:34:23;;;;;;;29.08;10.07;;;;;;;;;;5015096;28;19908;-57
2021/01/31 09:37:03;;;;;;;24.70;10.37;;;;;;;;;;5029726;28;20064;-55
2021/01/31 09:39:29;;;;;;;24.73;10.65;;;;;;;;;;5015377;28;20268;-58
2021/01/31 09:41:55;;;;;;;24.30;9.80;;;;;;;;;;5033370;28;20037;-60
2021/01/31 09:44:21;;;;;;;29.35;13.77;;;;;;;;;;5029272;28;20033;-57
2021/01/31 09:46:47;;;;;;;24.00;11.45;;;;;;;;;;5032095;28;20036;-59
2021/01/31 09:49:22;;;;;;;32.13;15.38;;;;;;;;;;5032834;28;20033;-58
2021/01/31 09:51:48;;;;;;;26.38;11.02;;;;;;;;;;5029925;28;20241;-57
2021/01/31 09:54:22;;;;;;;24.70;10.32;;;;;;;;;;5032135;28;20493;-60
2021/01/31 09:56:49;;;;;;;27.52;10.68;;;;;;;;;;5033290;28;20030;-55
2021/01/31 09:59:26;;;;;;;24.33;10.17;;;;;;;;;;5013927;28;20039;-59
2021/01/31 10:01:53;;;;;;;24.60;9.25;;;;;;;;;;5032829;28;20033;-57
2021/01/31 10:04:21;;;;;;;25.38;10.32;;;;;;;;;;5014002;28;20037;-62
2021/01/31 10:06:48;;;;;;;27.65;11.73;;;;;;;;;;5032946;28;20091;-61
2021/01/31 10:09:14;;;;;;;25.17;10.40;;;;;;;;;;5031098;28;20029;-58
2021/01/31 10:11:45;;;;;;;26.73;10.35;;;;;;;;;;5017987;28;20119;-54
2021/01/31 10:14:13;;;;;;;25.05;10.00;;;;;;;;;;5032592;28;20237;-55
2021/01/31 10:16:41;;;;;;;25.52;10.43;;;;;;;;;;5033103;28;20397;-65
2021/01/31 10:19:11;;;;;;;25.08;10.77;;;;;;;;;;5025556;28;20026;-66
2021/01/31 10:21:40;;;;;;;25.77;11.77;;;;;;;;;;5018116;28;20041;-66
2021/01/31 10:24:19;;;;;;;26.85;9.77;;;;;;;;;;5027312;28;20059;-63
2021/01/31 10:26:45;;;;;;;22.08;9.30;;;;;;;;;;5032940;28;20021;-62
2021/01/31 10:29:20;;;;;;;23.17;10.38;;;;;;;;;;5014625;28;20025;-60
2021/01/31 10:31:47;;;;;;;25.20;10.65;;;;;;;;;;5023632;28;20392;-58
2021/01/31 10:34:33;;;;;;;24.00;10.43;;;;;;;;;;5023204;28;20057;-57
2021/01/31 10:37:15;;;;;;;24.05;10.82;;;;;;;;;;5030456;28;20516;-57
2021/01/31 10:39:41;;;;;;;25.40;10.27;;;;;;;;;;5011526;28;20037;-57
2021/01/31 10:42:08;;;;;;;25.00;11.07;;;;;;;;;;5013721;28;20033;-59
2021/01/31 10:44:34;;;;;;;23.65;9.98;;;;;;;;;;5022554;28;20022;-61
2021/01/31 10:46:59;;;;;;;24.45;10.98;;;;;;;;;;5014048;28;20023;-61
2021/01/31 10:49:26;;;;;;;22.40;9.27;;;;;;;;;;5031587;28;20018;-65
2021/01/31 10:51:52;;;;;;;23.05;11.23;;;;;;;;;;5030728;28;20026;-62
2021/01/31 10:54:19;;;;;;;24.00;10.88;;;;;;;;;;5030990;28;20029;-62
2021/01/31 10:56:45;;;;;;;29.17;12.57;;;;;;;;;;5014349;28;20037;-61
2021/01/31 10:59:11;;;;;;;25.67;11.38;;;;;;;;;;5031245;28;20030;-60
2021/01/31 11:01:37;;;;;;;23.48;10.18;;;;;;;;;;5020965;28;20068;-62
2021/01/31 11:04:03;;;;;;;24.17;10.00;;;;;;;;;;5012033;28;20025;-58
2021/01/31 11:06:29;;;;;;;26.73;10.38;;;;;;;;;;4998386;28;20080;-61
2021/01/31 11:08:56;;;;;;;23.52;11.20;;;;;;;;;;5014893;28;20026;-61
2021/01/31 11:11:23;;;;;;;25.13;11.35;;;;;;;;;;5031408;28;20029;-65
2021/01/31 11:13:49;;;;;;;22.92;10.18;;;;;;;;;;5020990;28;20409;-64
2021/01/31 11:16:15;;;;;;;22.52;9.93;;;;;;;;;;5018794;28;20025;-63
2021/01/31 11:18:41;;;;;;;28.65;11.23;;;;;;;;;;5021672;28;20029;-64
2021/01/31 11:21:08;;;;;;;23.30;11.18;;;;;;;;;;5005706;28;20026;-62
2021/01/31 11:23:33;;;;;;;21.67;11.63;;;-1.80;99.90;;;;;;5029198;28;20116;-62
2021/01/31 11:25:59;;;;;;;25.67;12.05;;;;;;;;;;5032324;28;20044;-65
2021/01/31 11:28:25;;;;;;;24.80;13.05;;;5.80;99.90;;;;;;5031096;28;20018;-59
2021/01/31 11:30:51;;;;;;;21.83;12.55;;;;;;;;;;4981350;28;20034;-54
2021/01/31 11:33:18;;;;;;;21.52;13.55;;;;;;;;;;5031789;28;20030;-59
2021/01/31 11:35:43;;;;;;;22.52;14.45;;;;;;;;;;5013818;28;20100;-59
2021/01/31 11:38:09;;;;;;;21.13;14.32;;;6.90;99.90;;;;;;5010981;28;20030;-60
2021/01/31 11:40:35;;;;;;;24.33;14.07;;;8.80;98.10;;;;;;5031191;28;20047;-53
2021/01/31 11:43:00;;;;;;;21.38;13.85;;;9.30;96.20;;;;;;5031182;28;20032;-56
2021/01/31 11:45:30;;;;;;;21.92;13.73;;;9.00;94.80;;;;;;5013823;28;20025;-50
2021/01/31 11:47:56;;;;;;;20.90;13.50;;;9.30;95.00;;;;;;5013427;28;20393;-50
2021/01/31 11:50:24;;;;;;;20.80;14.55;;;;;;;;;;5031133;28;20025;-55
2021/01/31 11:52:50;;;;;;;28.98;14.63;;;9.40;94.30;;;;;;5024482;28;20025;-59
2021/01/31 11:55:16;;;;;;;22.65;14.40;;;9.80;93.40;;;;;;5031515;28;20083;-56
2021/01/31 11:57:42;;;;;;;23.35;14.93;;;9.80;92.60;;;;;;5030997;28;20020;-58
2021/01/31 12:00:11;;;;;;;23.17;15.55;;;10.10;91.60;;;;;;5030564;28;20025;-59
2021/01/31 12:02:36;;;;;;;20.75;13.90;;;9.80;91.90;;;;;;5014688;28;20041;-58
2021/01/31 12:05:03;;;;;;;28.45;15.07;;;;;;;;;;5031583;28;20046;-59
2021/01/31 12:07:29;;;;;;;25.83;14.57;;;;;;;;;;5031099;28;20101;-61
2021/01/31 12:09:55;;;;;;;24.35;13.90;;;;;;;;;;5030961;28;20116;-64
2021/01/31 12:12:21;;;;;;;23.05;14.50;;;10.10;91.20;;;;;;5031288;28;20044;-58
2021/01/31 12:14:46;;;;;;;20.85;13.57;;;9.30;90.50;;;;;;5031643;28;20477;-59
2021/01/31 12:17:12;;;;;;;23.17;14.93;;;9.80;91.10;;;;;;5030231;28;20399;-60
2021/01/31 12:19:37;;;;;;;23.42;14.25;;;10.10;89.60;;;;;;5030767;28;20045;-55
2021/01/31 12:22:03;;;;;;;20.83;13.80;;;10.30;90.30;;;;;;5031161;28;20108;-63
2021/01/31 12:24:29;;;;;;;25.00;13.63;;;10.50;90.90;;;;;;5013454;28;20025;-61
2021/01/31 12:26:55;;;;;;;23.23;13.82;;;;;;;;;;5013921;28;20030;-60
2021/01/31 12:29:21;;;;;;;21.02;14.05;;;10.90;90.40;;;;;;5013307;28;20030;-60
2021/01/31 12:31:46;;;;;;;19.20;13.52;;;12.20;83.90;;;;;;5014927;28;20050;-63
2021/01/31 12:34:12;;;;;;;23.95;14.00;;;11.00;83.80;;;;;;5013709;28;20499;-63
2021/01/31 12:36:39;;;;;;;27.08;14.20;;;10.70;85.20;;;;;;5012502;28;20037;-63
2021/01/31 12:39:05;;;;;;;22.63;14.25;;;;;;;;;;5019710;28;20025;-64
2021/01/31 12:41:31;;;;;;;23.92;14.55;;;;;;;;;;5016032;28;20026;-63
2021/01/31 12:43:57;;;;;;;23.17;14.18;;;;;;;;;;5031788;28;20026;-64
2021/01/31 12:46:23;;;;;;;22.83;14.23;;;10.60;88.50;;;;;;5026270;28;20033;-62
2021/01/31 12:48:48;;;;;;;20.23;13.70;;;10.60;85.30;;;;;;5016098;28;20025;-64
2021/01/31 12:51:14;;;;;;;23.30;13.52;;;;;;;;;;5021668;28;20029;-65
2021/01/31 12:53:40;;;;;;;22.42;13.65;;;11.00;84.40;;;;;;5033307;28;20029;-65
2021/01/31 12:56:06;;;;;;;22.30;13.85;;;11.40;80.60;;;;;;5034379;28;20075;-62
2021/01/31 12:58:32;;;;;;;20.60;13.63;;;10.80;80.20;;;;;;5033234;28;20025;-60
2021/01/31 13:00:58;;;;;;;21.38;14.18;;;11.00;81.70;;;;;;5032704;28;20033;-63
2021/01/31 13:03:24;;;;;;;22.08;14.02;;;10.90;83.50;;;;;;5016861;28;20401;-63
2021/01/31 13:05:50;;;;;;;20.20;13.82;;;11.00;83.00;;;;;;5016341;28;20021;-60
2021/01/31 13:08:16;;;;;;;19.98;13.13;;;10.60;82.50;;;;;;5034434;28;20036;-63
2021/01/31 13:10:41;;;;;;;20.02;13.05;;;9.60;85.10;;;;;;5033399;28;20029;-63
2021/01/31 13:13:07;;;;;;;21.55;12.55;;;9.90;85.40;;;;;;5041540;23;20053;-53
2021/01/31 13:15:33;;;;;;;21.77;14.38;;;10.00;84.20;;;;;;5016191;28;20029;-56